createdAt,value
2022-11-24T00:01:16.635Z,98835.19
2022-11-24T00:02:48.521Z,98831.75
2022-11-24T00:04:20.454Z,98835.16
2022-11-24T00:05:52.265Z,98828.25
2022-11-24T00:07:24.139Z,98825.63
2022-11-24T00:08:55.977Z,98825.63
2022-11-24T00:10:27.809Z,98830.72
2022-11-24T00:12:01.633Z,98840.22
2022-11-24T00:13:34.875Z,98836.78
2022-11-24T00:15:06.959Z,98841.94
2022-11-24T00:16:38.999Z,98834.22
2022-11-24T00:18:10.994Z,98838.47
2022-11-24T00:19:42.939Z,98834.22
2022-11-24T00:21:15.207Z,98833.38
2022-11-24T00:22:47.084Z,98835.97
2022-11-24T00:24:18.892Z,98828.22
2022-11-24T00:25:50.728Z,98820.50
2022-11-24T00:27:22.593Z,98826.56
2022-11-24T00:28:55.174Z,98814.53
2022-11-24T00:30:26.977Z,98819.69
2022-11-24T00:31:59.137Z,98816.25
2022-11-24T00:33:34.117Z,98820.53
2022-11-24T00:35:06.932Z,98819.66
2022-11-24T00:36:39.108Z,98810.19
2022-11-24T00:38:10.923Z,98822.22
2022-11-24T00:39:42.692Z,98823.06
2022-11-24T00:41:14.670Z,98825.63
2022-11-24T00:42:46.465Z,98831.66
2022-11-24T00:44:18.363Z,98828.22
2022-11-24T00:45:50.382Z,98836.78
2022-11-24T00:47:22.326Z,98833.31
2022-11-24T00:48:54.423Z,98833.38
2022-11-24T00:50:26.311Z,98830.00
2022-11-24T00:51:58.165Z,98823.94
2022-11-24T00:53:30.039Z,98828.28
2022-11-24T00:55:01.868Z,98819.78
2022-11-24T00:56:34.302Z,98830.97
2022-11-24T00:58:06.110Z,98831.94
2022-11-24T00:59:37.860Z,98840.56
2022-11-24T01:01:14.084Z,98849.16
2022-11-24T01:02:45.976Z,98850.91
2022-11-24T01:04:18.378Z,98868.06
2022-11-24T01:05:50.221Z,98874.13
2022-11-24T01:07:22.012Z,98865.56
2022-11-24T01:08:53.910Z,98861.28
2022-11-24T01:10:28.466Z,98848.38
2022-11-24T01:12:03.166Z,98845.00
2022-11-24T01:13:34.956Z,98865.63
2022-11-24T01:15:06.951Z,98862.28
2022-11-24T01:16:39.061Z,98855.44
2022-11-24T01:18:10.913Z,98858.94
2022-11-24T01:19:42.738Z,98863.25
2022-11-24T01:21:15.002Z,98865.03
2022-11-24T01:22:48.185Z,98865.06
2022-11-24T01:24:20.121Z,98859.91
2022-11-24T01:25:51.979Z,98862.47
2022-11-24T01:27:23.841Z,98860.75
2022-11-24T01:28:56.394Z,98866.78
2022-11-24T01:30:28.205Z,98854.72
2022-11-24T01:32:00.063Z,98852.16
2022-11-24T01:33:31.928Z,98859.88
2022-11-24T01:35:04.380Z,98853.06
2022-11-24T01:36:36.242Z,98860.84
2022-11-24T01:39:40.931Z,98848.88
2022-11-24T01:41:14.007Z,98848.84
2022-11-24T01:42:50.066Z,98848.88
2022-11-24T01:44:23.011Z,98855.78
2022-11-24T01:45:54.894Z,98849.81
2022-11-24T01:47:26.662Z,98849.84
2022-11-24T01:49:01.808Z,98855.91
2022-11-24T01:50:33.956Z,98858.47
2022-11-24T01:52:22.528Z,98856.72
2022-11-24T01:53:58.349Z,98860.16
2022-11-24T01:55:31.492Z,98865.34
2022-11-24T01:57:05.961Z,98860.19
2022-11-24T01:58:37.815Z,98855.94
2022-11-24T02:00:10.721Z,98859.41
2022-11-24T02:01:42.580Z,98862.03
2022-11-24T02:03:14.971Z,98868.91
2022-11-24T02:04:46.778Z,98864.63
2022-11-24T02:06:20.412Z,98874.06
2022-11-24T02:07:52.686Z,98869.78
2022-11-24T02:09:26.271Z,98861.19
2022-11-24T02:10:58.101Z,98863.75
2022-11-24T02:12:32.574Z,98868.03
2022-11-24T02:14:04.891Z,98859.47
2022-11-24T02:15:36.886Z,98861.25
2022-11-24T02:17:08.984Z,98862.16
2022-11-24T02:18:40.975Z,98867.31
2022-11-24T02:20:12.975Z,98868.16
2022-11-24T02:21:44.787Z,98868.16
2022-11-24T02:23:24.386Z,98870.69
2022-11-24T02:25:05.225Z,98869.88
2022-11-24T02:26:46.855Z,98867.31
2022-11-24T02:28:19.662Z,98864.75
2022-11-24T02:29:51.528Z,98866.47
2022-11-24T02:33:45.000Z,98871.69
2022-11-24T02:35:17.565Z,98880.31
2022-11-24T02:36:49.394Z,98883.75
2022-11-24T02:38:29.185Z,98886.31
2022-11-24T02:40:01.042Z,98886.34
2022-11-24T02:41:32.910Z,98889.81
2022-11-24T02:43:06.143Z,98892.47
2022-11-24T02:44:41.925Z,98890.78
2022-11-24T02:46:13.912Z,98888.28
2022-11-24T02:49:17.614Z,98889.16
2022-11-24T02:50:49.477Z,98892.53
2022-11-24T02:52:21.315Z,98895.13
2022-11-24T02:53:53.174Z,98900.28
2022-11-24T02:55:25.188Z,98901.97
2022-11-24T02:56:57.058Z,98906.22
2022-11-24T02:58:31.235Z,98907.88
2022-11-24T03:00:03.293Z,98910.41
2022-11-24T03:01:35.344Z,98911.25
2022-11-24T03:03:07.429Z,98918.97
2022-11-24T03:04:39.268Z,98923.28
2022-11-24T03:06:11.104Z,98916.41
2022-11-24T03:07:43.016Z,98914.66
2022-11-24T03:09:14.857Z,98913.78
2022-11-24T03:10:46.698Z,98920.63
2022-11-24T03:12:18.569Z,98920.63
2022-11-24T03:13:50.441Z,98920.63
2022-11-24T03:15:22.619Z,98917.22
2022-11-24T03:16:54.465Z,98919.81
2022-11-24T03:18:26.230Z,98919.00
2022-11-24T03:20:02.918Z,98933.63
2022-11-24T03:21:36.746Z,98930.13
2022-11-24T03:23:09.270Z,98927.53
2022-11-24T03:24:41.089Z,98931.84
2022-11-24T03:26:14.214Z,98924.13
2022-11-24T03:27:46.071Z,98936.16
2022-11-24T03:29:17.965Z,98937.84
2022-11-24T03:30:49.894Z,98940.41
2022-11-24T03:32:21.775Z,98942.13
2022-11-24T03:33:53.643Z,98935.25
2022-11-24T03:35:26.540Z,98941.22
2022-11-24T03:36:58.791Z,98944.63
2022-11-24T03:38:30.622Z,98942.88
2022-11-24T03:40:02.432Z,98942.84
2022-11-24T03:41:34.394Z,98939.38
2022-11-24T03:43:06.324Z,98947.94
2022-11-24T03:44:38.109Z,98955.63
2022-11-24T03:46:10.089Z,98956.53
2022-11-24T03:47:42.018Z,98953.03
2022-11-24T03:49:13.863Z,98949.53
2022-11-24T03:50:52.427Z,98963.25
2022-11-24T03:52:26.872Z,98957.22
2022-11-24T03:53:58.667Z,98965.78
2022-11-24T03:55:30.560Z,98965.78
2022-11-24T03:57:02.536Z,98970.06
2022-11-24T03:58:34.594Z,98967.53
2022-11-24T04:00:07.168Z,98971.88
2022-11-24T04:01:39.201Z,98967.66
2022-11-24T04:03:11.131Z,98966.84
2022-11-24T04:04:48.469Z,98966.84
2022-11-24T04:06:21.530Z,98970.34
2022-11-24T04:07:55.785Z,98970.38
2022-11-24T04:09:27.699Z,98966.97
2022-11-24T04:10:59.593Z,98970.41
2022-11-24T04:12:46.791Z,98975.53
2022-11-24T04:14:19.832Z,98981.53
2022-11-24T04:15:54.083Z,98972.13
2022-11-24T04:17:26.349Z,98978.09
2022-11-24T04:19:01.147Z,98978.97
2022-11-24T04:20:33.234Z,98978.97
2022-11-24T04:22:05.043Z,98987.56
2022-11-24T04:23:36.844Z,98984.94
2022-11-24T04:25:09.018Z,98990.06
2022-11-24T04:26:40.921Z,98996.03
2022-11-24T04:28:12.776Z,98989.16
2022-11-24T04:29:44.597Z,99000.34
2022-11-24T04:31:16.747Z,99005.44
2022-11-24T04:32:51.692Z,98995.09
2022-11-24T04:34:23.556Z,99003.69
2022-11-24T04:35:55.449Z,99004.53
2022-11-24T04:37:27.319Z,99002.84
2022-11-24T04:39:23.500Z,99010.53
2022-11-24T04:40:51.026Z,99010.56
2022-11-24T04:42:22.921Z,99004.53
2022-11-24T04:43:54.838Z,99007.13
2022-11-24T04:45:27.496Z,99006.22
2022-11-24T04:46:59.400Z,99006.25
2022-11-24T04:48:31.407Z,99014.81
2022-11-24T04:50:04.892Z,99018.25
2022-11-24T04:51:36.709Z,99022.50
2022-11-24T04:53:09.512Z,99030.22
2022-11-24T04:54:41.457Z,99029.31
2022-11-24T04:56:13.339Z,99028.44
2022-11-24T04:57:45.351Z,99028.38
2022-11-24T04:59:17.469Z,99024.97
2022-11-24T05:00:49.415Z,99032.66
2022-11-24T05:02:21.416Z,99036.91
2022-11-24T05:03:54.127Z,99033.44
2022-11-24T05:05:26.022Z,99042.06
2022-11-24T05:06:57.800Z,99045.47
2022-11-24T05:08:29.634Z,99046.28
2022-11-24T05:10:20.250Z,99052.25
2022-11-24T05:11:52.146Z,99050.50
2022-11-24T05:13:24.188Z,99054.75
2022-11-24T05:14:56.082Z,99059.06
2022-11-24T05:16:29.360Z,99058.97
2022-11-24T05:18:03.971Z,99067.53
2022-11-24T05:19:35.867Z,99068.34
2022-11-24T05:21:07.726Z,99075.22
2022-11-24T05:22:39.616Z,99080.34
2022-11-24T05:24:11.625Z,99069.97
2022-11-24T05:25:47.408Z,99075.91
2022-11-24T05:27:19.668Z,99074.16
2022-11-24T05:28:51.579Z,99081.81
2022-11-24T05:30:23.925Z,99080.09
2022-11-24T05:31:55.899Z,99078.41
2022-11-24T05:33:28.953Z,99086.16
2022-11-24T05:35:02.616Z,99092.13
2022-11-24T05:36:54.839Z,99097.28
2022-11-24T05:38:27.250Z,99098.94
2022-11-24T05:39:59.245Z,99098.94
2022-11-24T05:41:31.489Z,99100.63
2022-11-24T05:43:03.612Z,99106.63
2022-11-24T05:44:35.914Z,99107.44
2022-11-24T05:47:41.505Z,99116.88
2022-11-24T05:49:13.449Z,99120.34
2022-11-24T05:50:45.294Z,99117.75
2022-11-24T05:52:17.236Z,99119.44
2022-11-24T05:53:49.189Z,99125.50
2022-11-24T05:55:21.042Z,99123.72
2022-11-24T05:56:53.029Z,99116.84
2022-11-24T05:58:25.017Z,99123.66
2022-11-24T05:59:57.539Z,99127.94
2022-11-24T06:01:29.686Z,99130.47
2022-11-24T06:03:02.077Z,99130.44
2022-11-24T06:04:34.624Z,99133.84
2022-11-24T06:06:07.007Z,99133.81
2022-11-24T06:07:39.375Z,99139.81
2022-11-24T06:09:11.373Z,99144.13
2022-11-24T06:10:43.296Z,99146.72
2022-11-24T06:12:15.522Z,99151.00
2022-11-24T06:13:48.887Z,99150.97
2022-11-24T06:15:23.829Z,99146.72
2022-11-24T06:16:55.954Z,99150.13
2022-11-24T06:18:28.404Z,99157.84
2022-11-24T06:20:00.236Z,99158.69
2022-11-24T06:21:32.458Z,99166.53
2022-11-24T06:23:04.308Z,99170.78
2022-11-24T06:24:36.558Z,99169.94
2022-11-24T06:26:09.544Z,99169.09
2022-11-24T06:27:41.427Z,99175.16
2022-11-24T06:29:13.582Z,99181.19
2022-11-24T06:30:46.351Z,99186.28
2022-11-24T06:32:18.479Z,99188.03
2022-11-24T06:33:50.491Z,99190.63
2022-11-24T06:35:22.457Z,99194.94
2022-11-24T06:36:54.774Z,99193.22
2022-11-24T06:38:26.717Z,99196.66
2022-11-24T06:39:58.822Z,99189.75
2022-11-24T06:41:30.663Z,99196.56
2022-11-24T06:43:02.547Z,99195.66
2022-11-24T06:44:34.833Z,99195.66
2022-11-24T06:46:07.095Z,99197.34
2022-11-24T06:47:39.073Z,99193.03
2022-11-24T06:49:11.131Z,99197.28
2022-11-24T06:50:43.188Z,99199.00
2022-11-24T06:52:15.136Z,99198.09
2022-11-24T06:53:47.055Z,99204.97
2022-11-24T06:55:18.996Z,99204.94
2022-11-24T06:56:50.907Z,99207.47
2022-11-24T06:58:22.957Z,99213.47
2022-11-24T06:59:54.790Z,99208.31
2022-11-24T07:01:27.394Z,99210.00
2022-11-24T07:02:59.676Z,99205.69
2022-11-24T07:04:31.944Z,99214.25
2022-11-24T07:06:04.492Z,99209.94
2022-11-24T07:07:36.545Z,99209.03
2022-11-24T07:09:09.902Z,99208.19
2022-11-24T07:10:41.752Z,99221.91
2022-11-24T07:12:13.874Z,99221.00
2022-11-24T07:13:46.155Z,99225.31
2022-11-24T07:15:18.338Z,99222.66
2022-11-24T07:16:50.443Z,99228.63
2022-11-24T07:18:22.871Z,99226.91
2022-11-24T07:19:55.771Z,99226.88
2022-11-24T07:21:28.598Z,99238.91
2022-11-24T07:23:01.269Z,99238.00
2022-11-24T07:24:33.524Z,99242.28
2022-11-24T07:26:07.143Z,99242.22
2022-11-24T07:27:39.194Z,99243.06
2022-11-24T07:29:11.197Z,99242.19
2022-11-24T07:30:44.329Z,99243.88
2022-11-24T07:32:16.880Z,99248.19
2022-11-24T07:33:54.757Z,99253.31
2022-11-24T07:35:27.459Z,99249.00
2022-11-24T07:36:59.515Z,99247.25
2022-11-24T07:38:32.359Z,99255.03
2022-11-24T07:40:04.395Z,99253.25
2022-11-24T07:41:36.732Z,99258.41
2022-11-24T07:43:08.605Z,99254.91
2022-11-24T07:44:43.828Z,99261.78
2022-11-24T07:46:17.207Z,99260.88
2022-11-24T07:47:49.468Z,99259.09
2022-11-24T07:49:21.660Z,99263.41
2022-11-24T07:50:56.152Z,99257.44
2022-11-24T07:52:31.304Z,99264.34
2022-11-24T07:54:03.611Z,99259.22
2022-11-24T07:55:35.519Z,99266.97
2022-11-24T07:57:07.740Z,99271.28
2022-11-24T07:58:39.777Z,99275.53
2022-11-24T08:00:13.362Z,99274.59
2022-11-24T08:01:45.619Z,99276.25
2022-11-24T08:03:17.901Z,99268.50
2022-11-24T08:04:50.131Z,99280.53
2022-11-24T08:06:27.230Z,99277.97
2022-11-24T08:08:01.237Z,99279.75
2022-11-24T08:09:33.430Z,99280.56
2022-11-24T08:11:09.661Z,99286.56
2022-11-24T08:12:43.795Z,99285.69
2022-11-24T08:14:16.141Z,99287.38
2022-11-24T08:15:48.216Z,99289.91
2022-11-24T08:17:20.396Z,99288.13
2022-11-24T08:18:53.259Z,99294.91
2022-11-24T08:20:25.471Z,99295.84
2022-11-24T08:21:58.470Z,99292.44
2022-11-24T08:23:30.835Z,99298.41
2022-11-24T08:25:02.889Z,99298.41
2022-11-24T08:26:34.817Z,99304.31
2022-11-24T08:28:06.841Z,99307.75
2022-11-24T08:29:38.927Z,99300.00
2022-11-24T08:31:12.515Z,99305.16
2022-11-24T08:32:44.542Z,99304.38
2022-11-24T08:34:16.823Z,99306.91
2022-11-24T08:35:48.743Z,99311.34
2022-11-24T08:37:20.914Z,99313.94
2022-11-24T08:38:56.853Z,99316.41
2022-11-24T08:40:28.898Z,99310.56
2022-11-24T08:42:01.006Z,99314.88
2022-11-24T08:43:33.265Z,99310.53
2022-11-24T08:45:19.884Z,99311.38
2022-11-24T08:46:53.971Z,99316.59
2022-11-24T08:48:25.852Z,99313.19
2022-11-24T08:51:30.098Z,99321.78
2022-11-24T08:53:03.696Z,99322.63
2022-11-24T08:54:35.837Z,99318.31
2022-11-24T08:56:08.479Z,99325.25
2022-11-24T08:57:40.738Z,99318.53
2022-11-24T08:59:14.549Z,99324.56
2022-11-24T09:00:46.758Z,99321.16
2022-11-24T09:02:18.920Z,99316.16
2022-11-24T09:03:51.575Z,99329.03
2022-11-24T09:05:50.816Z,99316.97
2022-11-24T09:07:16.015Z,99322.09
2022-11-24T09:08:48.919Z,99322.16
2022-11-24T09:10:21.008Z,99318.66
2022-11-24T09:11:52.873Z,99318.69
2022-11-24T09:13:24.853Z,99325.50
2022-11-24T09:14:57.091Z,99325.44
2022-11-24T09:16:32.129Z,99321.94
2022-11-24T09:18:04.191Z,99318.47
2022-11-24T09:19:36.514Z,99320.25
2022-11-24T09:21:09.705Z,99318.50
2022-11-24T09:22:43.439Z,99318.41
2022-11-24T09:24:18.299Z,99320.16
2022-11-24T09:25:50.438Z,99321.81
2022-11-24T09:27:22.677Z,99318.34
2022-11-24T09:28:55.674Z,99314.97
2022-11-24T09:30:28.039Z,99314.94
2022-11-24T09:32:06.376Z,99316.66
2022-11-24T09:33:39.287Z,99311.47
2022-11-24T09:35:11.516Z,99311.47
2022-11-24T09:36:43.700Z,99312.41
2022-11-24T09:38:15.807Z,99316.63
2022-11-24T09:39:47.940Z,99306.31
2022-11-24T09:41:35.347Z,99310.59
2022-11-24T09:43:09.749Z,99309.75
2022-11-24T09:44:55.036Z,99320.06
2022-11-24T09:46:28.601Z,99315.78
2022-11-24T09:49:36.437Z,99315.78
2022-11-24T09:51:10.990Z,99320.06
2022-11-24T09:52:43.022Z,99307.19
2022-11-24T09:54:19.994Z,99314.03
2022-11-24T09:55:52.918Z,99307.97
2022-11-24T09:57:24.965Z,99308.84
2022-11-24T09:59:01.110Z,99316.53
2022-11-24T10:00:33.750Z,99309.69
2022-11-24T10:02:08.505Z,99318.25
2022-11-24T10:03:44.220Z,99309.59
2022-11-24T10:05:16.166Z,99311.34
2022-11-24T10:06:54.146Z,99311.47
2022-11-24T10:08:39.950Z,99314.03
2022-11-24T10:10:17.408Z,99314.91
2022-11-24T10:12:00.739Z,99314.06
2022-11-24T10:13:51.671Z,99303.00
2022-11-24T10:15:26.163Z,99308.47
2022-11-24T10:17:02.301Z,99310.97
2022-11-24T10:18:46.393Z,99316.97
2022-11-24T10:20:24.274Z,99316.94
2022-11-24T10:22:08.465Z,99320.34
2022-11-24T10:25:16.605Z,99317.75
2022-11-24T10:26:52.276Z,99319.44
2022-11-24T10:28:25.996Z,99320.28
2022-11-24T10:29:58.373Z,99315.09
2022-11-24T10:31:34.999Z,99321.09
2022-11-24T10:33:17.832Z,99321.09
2022-11-24T10:34:53.178Z,99312.50
2022-11-24T10:36:54.387Z,99314.22
2022-11-24T10:38:35.532Z,99318.56
2022-11-24T10:40:33.074Z,99322.91
2022-11-24T10:42:15.151Z,99323.75
2022-11-24T10:43:47.217Z,99319.53
2022-11-24T10:45:20.235Z,99316.88
2022-11-24T10:46:52.846Z,99312.59
2022-11-24T10:48:25.918Z,99317.69
2022-11-24T10:50:00.561Z,99315.91
2022-11-24T10:51:32.613Z,99315.09
2022-11-24T10:53:13.531Z,99309.88
2022-11-24T10:54:59.034Z,99307.34
2022-11-24T10:56:39.189Z,99309.06
2022-11-24T10:58:17.657Z,99312.50
2022-11-24T10:59:49.804Z,99309.06
2022-11-24T11:01:25.110Z,99306.47
2022-11-24T11:03:16.806Z,99304.78
2022-11-24T11:04:48.828Z,99301.31
2022-11-24T11:06:23.981Z,99305.59
2022-11-24T11:08:22.461Z,99305.56
2022-11-24T11:10:13.085Z,99311.56
2022-11-24T11:11:47.370Z,99307.19
2022-11-24T11:13:22.399Z,99303.72
2022-11-24T11:14:54.465Z,99301.13
2022-11-24T11:16:28.435Z,99310.63
2022-11-24T11:18:01.531Z,99307.97
2022-11-24T11:19:53.259Z,99306.19
2022-11-24T11:21:28.967Z,99307.97
2022-11-24T11:23:02.457Z,99298.56
2022-11-24T11:24:34.416Z,99299.41
2022-11-24T11:26:25.224Z,99306.22
2022-11-24T11:31:22.918Z,99304.56
2022-11-24T11:34:51.983Z,99303.59
2022-11-24T11:36:24.092Z,99305.31
2022-11-24T11:37:57.940Z,99306.16
2022-11-24T11:39:30.053Z,99308.78
2022-11-24T11:41:02.172Z,99307.00
2022-11-24T11:44:45.259Z,99309.56
2022-11-24T11:46:17.562Z,99310.38
2022-11-24T11:48:01.797Z,99312.13
2022-11-24T11:49:34.022Z,99310.41
2022-11-24T11:51:23.260Z,99313.09
2022-11-24T11:53:04.973Z,99306.16
2022-11-24T11:54:53.677Z,99308.78
2022-11-24T11:56:26.466Z,99310.50
2022-11-24T11:58:10.546Z,99312.25
2022-11-24T12:00:03.179Z,99308.78
2022-11-24T12:01:56.784Z,99310.50
2022-11-24T12:03:51.098Z,99318.25
2022-11-24T12:05:42.617Z,99321.69
2022-11-24T12:07:47.037Z,99320.78
2022-11-24T12:09:41.054Z,99320.84
2022-11-24T12:11:18.374Z,99319.09
2022-11-24T12:12:52.958Z,99321.69
2022-11-24T12:14:31.280Z,99322.50
2022-11-24T12:16:12.218Z,99326.84
2022-11-24T12:17:55.616Z,99325.94
2022-11-24T12:19:48.979Z,99328.53
2022-11-24T12:21:26.662Z,99326.81
2022-11-24T12:23:14.587Z,99324.22
2022-11-24T12:24:46.711Z,99324.22
2022-11-24T12:26:30.734Z,99326.00
2022-11-24T12:28:18.577Z,99319.09
2022-11-24T12:30:02.669Z,99318.25
2022-11-24T12:31:50.677Z,99316.47
2022-11-24T12:33:29.784Z,99314.75
2022-11-24T12:35:20.254Z,99313.00
2022-11-24T12:37:02.289Z,99315.59
2022-11-24T12:38:51.714Z,99313.03
2022-11-24T12:40:29.510Z,99315.59
2022-11-24T12:42:01.275Z,99311.25
2022-11-24T12:43:34.539Z,99318.09
2022-11-24T12:45:09.507Z,99318.06
2022-11-24T12:46:47.630Z,99321.50
2022-11-24T12:48:25.808Z,99320.63
2022-11-24T12:50:11.101Z,99315.44
2022-11-24T12:51:43.849Z,99307.63
2022-11-24T12:53:34.619Z,99313.66
2022-11-24T12:55:09.011Z,99314.50
2022-11-24T12:56:43.096Z,99317.00
2022-11-24T12:58:17.901Z,99320.41
2022-11-24T12:59:54.870Z,99317.81
2022-11-24T13:01:48.172Z,99316.97
2022-11-24T13:03:24.508Z,99316.97
2022-11-24T13:05:15.225Z,99310.88
2022-11-24T13:07:02.247Z,99315.19
2022-11-24T13:08:35.206Z,99315.19
2022-11-24T13:10:54.677Z,99322.09
2022-11-24T13:12:20.308Z,99317.78
2022-11-24T13:14:02.134Z,99321.22
2022-11-24T13:16:07.157Z,99330.69
2022-11-24T13:18:02.814Z,99321.22
2022-11-24T13:19:36.893Z,99334.16
2022-11-24T13:21:27.301Z,99325.53
2022-11-24T13:23:00.585Z,99326.38
2022-11-24T13:24:34.751Z,99328.94
2022-11-24T13:26:24.370Z,99331.53
2022-11-24T13:28:00.008Z,99316.84
2022-11-24T13:29:33.937Z,99328.00
2022-11-24T13:31:10.896Z,99328.84
2022-11-24T13:32:43.136Z,99328.84
2022-11-24T13:34:41.900Z,99327.97
2022-11-24T13:36:25.766Z,99324.50
2022-11-24T13:37:58.145Z,99329.63
2022-11-24T13:39:50.308Z,99327.88
2022-11-24T13:41:34.693Z,99344.22
2022-11-24T13:43:08.066Z,99339.97
2022-11-24T13:44:46.733Z,99343.38
2022-11-24T13:46:18.871Z,99339.97
2022-11-24T13:49:38.114Z,99344.22
2022-11-24T13:51:14.782Z,99341.63
2022-11-24T13:52:48.294Z,99347.72
2022-11-24T13:54:20.320Z,99343.34
2022-11-24T13:55:57.207Z,99343.34
2022-11-24T13:57:35.299Z,99343.34
2022-11-24T13:59:36.900Z,99351.91
2022-11-24T14:01:13.053Z,99350.22
2022-11-24T14:02:45.002Z,99344.19
2022-11-24T14:04:33.141Z,99351.94
2022-11-24T14:06:05.745Z,99357.94
2022-11-24T14:07:37.828Z,99355.34
2022-11-24T14:09:28.635Z,99351.94
2022-11-24T14:11:01.207Z,99357.91
2022-11-24T14:12:34.492Z,99353.63
2022-11-24T14:14:16.036Z,99357.84
2022-11-24T14:16:05.089Z,99352.69
2022-11-24T14:17:37.921Z,99354.38
2022-11-24T14:19:10.319Z,99354.31
2022-11-24T14:20:42.191Z,99354.38
2022-11-24T14:22:21.295Z,99356.06
2022-11-24T14:24:04.554Z,99363.81
2022-11-24T14:25:36.518Z,99356.88
2022-11-24T14:27:12.835Z,99358.66
2022-11-24T14:28:44.849Z,99356.91
2022-11-24T14:30:21.382Z,99365.53
2022-11-24T14:31:56.930Z,99364.66
2022-11-24T14:33:29.038Z,99368.97
2022-11-24T14:35:01.282Z,99365.53
2022-11-24T14:36:33.700Z,99365.56
2022-11-24T14:38:06.209Z,99363.81
2022-11-24T14:39:41.647Z,99363.81
2022-11-24T14:41:26.425Z,99368.13
2022-11-24T14:43:01.453Z,99371.56
2022-11-24T14:44:59.866Z,99369.81
2022-11-24T14:48:05.140Z,99371.56
2022-11-24T14:49:39.638Z,99365.56
2022-11-24T14:51:11.683Z,99371.59
2022-11-24T14:52:44.468Z,99376.81
2022-11-24T14:54:17.899Z,99380.28
2022-11-24T14:55:49.851Z,99384.63
2022-11-24T14:57:34.873Z,99379.53
2022-11-24T14:59:23.184Z,99382.97
2022-11-24T15:01:10.472Z,99382.13
2022-11-24T15:02:45.102Z,99383.03
2022-11-24T15:04:46.309Z,99383.03
2022-11-24T15:06:17.804Z,99382.16
2022-11-24T15:07:50.764Z,99389.94
2022-11-24T15:09:25.351Z,99383.88
2022-11-24T15:11:06.405Z,99387.34
2022-11-24T15:12:42.123Z,99387.34
2022-11-24T15:14:30.251Z,99394.25
2022-11-24T15:16:03.773Z,99392.63
2022-11-24T15:17:35.968Z,99394.34
2022-11-24T15:19:12.722Z,99393.53
2022-11-24T15:22:34.375Z,99399.63
2022-11-24T15:24:07.533Z,99398.81
2022-11-24T15:25:39.647Z,99400.56
2022-11-24T15:27:11.581Z,99402.28
2022-11-24T15:28:43.592Z,99398.84
2022-11-24T15:30:15.733Z,99401.44
2022-11-24T15:31:52.405Z,99398.94
2022-11-24T15:33:24.871Z,99404.13
2022-11-24T15:34:56.744Z,99401.56
2022-11-24T15:36:28.883Z,99399.88
2022-11-24T15:38:00.876Z,99405.88
2022-11-24T15:39:33.022Z,99412.81
2022-11-24T15:41:06.398Z,99411.97
2022-11-24T15:42:38.510Z,99415.41
2022-11-24T15:44:10.622Z,99411.13
2022-11-24T15:45:42.555Z,99416.31
2022-11-24T15:47:14.667Z,99407.72
2022-11-24T15:48:49.624Z,99404.31
2022-11-24T15:50:21.691Z,99409.50
2022-11-24T15:51:54.081Z,99404.34
2022-11-24T15:53:27.194Z,99406.09
2022-11-24T15:54:59.429Z,99407.84
2022-11-24T15:58:05.952Z,99408.72
2022-11-24T15:59:40.431Z,99410.44
2022-11-24T16:01:12.540Z,99412.19
2022-11-24T16:02:44.753Z,99404.41
2022-11-24T16:04:16.900Z,99407.84
2022-11-24T16:05:49.203Z,99406.94
2022-11-24T16:07:21.128Z,99406.00
2022-11-24T16:08:53.574Z,99402.59
2022-11-24T16:10:26.643Z,99423.31
2022-11-24T16:11:58.671Z,99420.75
2022-11-24T16:13:30.619Z,99424.22
2022-11-24T16:15:02.626Z,99419.94
2022-11-24T16:16:34.730Z,99420.78
2022-11-24T16:18:07.274Z,99422.44
2022-11-24T16:19:41.992Z,99424.19
2022-11-24T16:21:14.260Z,99419.03
2022-11-24T16:22:46.268Z,99421.59
2022-11-24T16:24:18.338Z,99428.50
2022-11-24T16:25:50.365Z,99423.31
2022-11-24T16:27:22.312Z,99426.75
2022-11-24T16:28:54.530Z,99423.34
2022-11-24T16:30:26.768Z,99422.50
2022-11-24T16:31:59.039Z,99429.34
2022-11-24T16:33:31.167Z,99419.03
2022-11-24T16:35:03.226Z,99426.78
2022-11-24T16:36:35.371Z,99428.53
2022-11-24T16:38:07.508Z,99427.72
2022-11-24T16:39:39.872Z,99431.16
2022-11-24T16:41:12.298Z,99436.34
2022-11-24T16:42:44.221Z,99434.66
2022-11-24T16:44:16.467Z,99436.44
2022-11-24T16:45:50.480Z,99432.13
2022-11-24T16:47:22.412Z,99430.47
2022-11-24T16:48:55.439Z,99432.19
2022-11-24T16:50:27.484Z,99428.78
2022-11-24T16:51:59.364Z,99433.13
2022-11-24T16:53:31.272Z,99436.56
2022-11-24T16:55:04.061Z,99434.00
2022-11-24T16:56:36.051Z,99430.56
2022-11-24T16:58:08.336Z,99425.34
2022-11-24T17:02:53.745Z,99433.16
2022-11-24T17:04:25.921Z,99430.56
2022-11-24T17:05:58.447Z,99436.56
2022-11-24T17:07:30.838Z,99434.88
2022-11-24T17:09:03.361Z,99440.91
2022-11-24T17:10:38.259Z,99440.06
2022-11-24T17:12:10.178Z,99440.91
2022-11-24T17:13:42.313Z,99440.91
2022-11-24T17:17:07.250Z,99449.47
2022-11-24T17:18:39.419Z,99444.31
2022-11-24T17:20:12.171Z,99443.47
2022-11-24T17:21:44.144Z,99443.47
2022-11-24T17:23:16.532Z,99444.31
2022-11-24T17:24:48.750Z,99448.63
2022-11-24T17:26:20.909Z,99445.22
2022-11-24T17:27:53.229Z,99447.78
2022-11-24T17:29:25.536Z,99447.78
2022-11-24T17:30:57.720Z,99442.66
2022-11-24T17:32:29.705Z,99446.16
2022-11-24T17:34:02.241Z,99447.06
2022-11-24T17:35:35.300Z,99454.00
2022-11-24T17:37:07.302Z,99448.00
2022-11-24T17:38:39.388Z,99460.06
2022-11-24T17:40:27.976Z,99454.94
2022-11-24T17:42:01.697Z,99453.25
2022-11-24T17:43:34.591Z,99458.44
2022-11-24T17:45:07.053Z,99452.44
2022-11-24T17:46:39.469Z,99458.44
2022-11-24T17:48:11.374Z,99452.44
2022-11-24T17:49:43.308Z,99463.63
2022-11-24T17:51:16.301Z,99454.13
2022-11-24T17:52:48.437Z,99454.19
2022-11-24T17:56:16.639Z,99457.63
2022-11-24T17:57:48.832Z,99461.97
2022-11-24T18:00:59.906Z,99458.44
2022-11-24T18:02:32.765Z,99459.34
2022-11-24T18:04:05.060Z,99457.63
2022-11-24T18:05:37.213Z,99455.94
2022-11-24T18:07:09.300Z,99455.94
2022-11-24T18:08:42.350Z,99455.94
2022-11-24T18:10:14.490Z,99450.78
2022-11-24T18:11:48.146Z,99449.97
2022-11-24T18:13:41.123Z,99447.38
2022-11-24T18:15:11.955Z,99453.41
2022-11-24T18:16:44.104Z,99453.41
2022-11-24T18:18:16.263Z,99452.56
2022-11-24T18:19:48.248Z,99451.72
2022-11-24T18:21:20.228Z,99451.72
2022-11-24T18:23:05.637Z,99459.44
2022-11-24T18:24:39.165Z,99455.13
2022-11-24T18:26:17.951Z,99460.31
2022-11-24T18:27:50.031Z,99460.31
2022-11-24T18:29:22.445Z,99464.63
2022-11-24T18:30:54.560Z,99462.91
2022-11-24T18:32:26.786Z,99460.31
2022-11-24T18:33:59.648Z,99462.03
2022-11-24T18:35:31.914Z,99456.88
2022-11-24T18:37:04.055Z,99470.63
2022-11-24T18:38:39.438Z,99464.59
2022-11-24T18:40:11.539Z,99469.78
2022-11-24T18:41:43.519Z,99461.13
2022-11-24T18:43:15.677Z,99462.03
2022-11-24T18:44:52.578Z,99465.47
2022-11-24T18:46:25.991Z,99465.47
2022-11-24T18:47:58.234Z,99471.53
2022-11-24T18:49:32.299Z,99468.06
2022-11-24T18:51:04.702Z,99466.38
2022-11-24T18:52:36.851Z,99466.38
2022-11-24T18:54:09.181Z,99457.81
2022-11-24T18:55:41.195Z,99464.66
2022-11-24T18:57:13.110Z,99463.81
2022-11-24T18:58:45.934Z,99463.81
2022-11-24T19:00:19.139Z,99471.63
2022-11-24T19:01:51.384Z,99467.31
2022-11-24T19:03:23.749Z,99463.88
2022-11-24T19:04:55.925Z,99461.31
2022-11-24T19:06:35.013Z,99463.91
2022-11-24T19:08:07.063Z,99462.19